sensor_id;sensor_type;location;lat;lon;timestamp;pressure;altitude;pressure_sealevel;temperature;humidity
62436;BME280;48480;50.252;18.848;2022-10-16T00:02:28;98854.83;;;13.96;73.41
62436;BME280;48480;50.252;18.848;2022-10-16T00:05:12;98858.31;;;13.96;73.32
62436;BME280;48480;50.252;18.848;2022-10-16T00:07:56;98854.92;;;13.96;73.40
62436;BME280;48480;50.252;18.848;2022-10-16T00:10:40;98833.29;;;13.81;73.39
62436;BME280;48480;50.252;18.848;2022-10-16T00:13:24;98859.69;;;13.96;73.44
62436;BME280;48480;50.252;18.848;2022-10-16T00:16:09;98862.53;;;13.96;73.43
62436;BME280;48480;50.252;18.848;2022-10-16T00:18:53;98861.00;;;13.96;73.50
62436;BME280;48480;50.252;18.848;2022-10-16T00:21:38;98855.40;;;13.97;73.56
62436;BME280;48480;50.252;18.848;2022-10-16T00:24:22;98854.41;;;13.95;73.62
62436;BME280;48480;50.252;18.848;2022-10-16T00:27:06;98860.33;;;13.95;73.62
62436;BME280;48480;50.252;18.848;2022-10-16T00:29:51;98861.68;;;13.92;73.67
62436;BME280;48480;50.252;18.848;2022-10-16T00:32:35;98862.88;;;13.89;73.72
62436;BME280;48480;50.252;18.848;2022-10-16T00:35:19;98860.84;;;13.86;73.73
62436;BME280;48480;50.252;18.848;2022-10-16T00:38:03;98859.96;;;13.83;73.92
62436;BME280;48480;50.252;18.848;2022-10-16T00:40:47;98861.81;;;13.81;73.90
62436;BME280;48480;50.252;18.848;2022-10-16T00:43:52;98865.50;;;13.79;74.05
62436;BME280;48480;50.252;18.848;2022-10-16T00:46:38;98863.59;;;13.77;74.18
62436;BME280;48480;50.252;18.848;2022-10-16T00:49:23;98863.52;;;13.75;74.25
62436;BME280;48480;50.252;18.848;2022-10-16T00:52:07;98862.75;;;13.71;74.41
62436;BME280;48480;50.252;18.848;2022-10-16T00:54:53;98861.02;;;13.69;74.53
62436;BME280;48480;50.252;18.848;2022-10-16T00:57:37;98860.05;;;13.66;74.55
62436;BME280;48480;50.252;18.848;2022-10-16T01:00:25;98861.76;;;13.64;74.69
62436;BME280;48480;50.252;18.848;2022-10-16T01:03:43;98859.27;;;13.59;74.84
62436;BME280;48480;50.252;18.848;2022-10-16T01:13:11;98857.58;;;13.49;75.33
62436;BME280;48480;50.252;18.848;2022-10-16T01:18:54;98854.48;;;13.51;75.36
62436;BME280;48480;50.252;18.848;2022-10-16T01:21:43;98858.42;;;13.51;75.36
62436;BME280;48480;50.252;18.848;2022-10-16T01:24:38;98858.20;;;13.52;75.36
62436;BME280;48480;50.252;18.848;2022-10-16T01:27:26;98857.38;;;13.50;75.43
62436;BME280;48480;50.252;18.848;2022-10-16T01:30:23;98859.80;;;13.49;75.52
62436;BME280;48480;50.252;18.848;2022-10-16T01:33:14;98862.11;;;13.47;75.53
62436;BME280;48480;50.252;18.848;2022-10-16T01:36:11;98856.04;;;13.45;75.58
62436;BME280;48480;50.252;18.848;2022-10-16T01:39:00;98859.19;;;13.43;75.67
62436;BME280;48480;50.252;18.848;2022-10-16T01:41:48;98859.23;;;13.42;75.65
62436;BME280;48480;50.252;18.848;2022-10-16T01:44:37;98862.30;;;13.40;75.75
62436;BME280;48480;50.252;18.848;2022-10-16T01:47:23;98863.87;;;13.35;75.73
62436;BME280;48480;50.252;18.848;2022-10-16T01:50:09;98861.41;;;13.33;75.79
62436;BME280;48480;50.252;18.848;2022-10-16T01:52:55;98862.80;;;13.32;75.85
62436;BME280;48480;50.252;18.848;2022-10-16T01:55:45;98863.80;;;13.32;75.89
62436;BME280;48480;50.252;18.848;2022-10-16T01:58:34;98869.09;;;13.31;75.94
62436;BME280;48480;50.252;18.848;2022-10-16T02:01:22;98868.48;;;13.30;75.86
62436;BME280;48480;50.252;18.848;2022-10-16T02:07:10;98881.11;;;13.22;76.01
62436;BME280;48480;50.252;18.848;2022-10-16T02:09:54;98887.58;;;13.19;76.15
62436;BME280;48480;50.252;18.848;2022-10-16T02:12:42;98884.96;;;13.15;76.17
62436;BME280;48480;50.252;18.848;2022-10-16T02:15:28;98891.55;;;13.13;76.27
62436;BME280;48480;50.252;18.848;2022-10-16T02:18:13;98895.12;;;13.10;76.34
62436;BME280;48480;50.252;18.848;2022-10-16T02:21:02;98888.61;;;13.06;76.48
62436;BME280;48480;50.252;18.848;2022-10-16T02:27:20;98895.70;;;13.01;76.73
62436;BME280;48480;50.252;18.848;2022-10-16T02:30:11;98895.48;;;13.00;76.81
62436;BME280;48480;50.252;18.848;2022-10-16T02:32:58;98887.39;;;12.96;76.83
62436;BME280;48480;50.252;18.848;2022-10-16T02:35:45;98893.42;;;13.02;76.89
62436;BME280;48480;50.252;18.848;2022-10-16T02:38:30;98884.45;;;13.03;76.86
62436;BME280;48480;50.252;18.848;2022-10-16T02:41:14;98880.63;;;13.03;76.89
62436;BME280;48480;50.252;18.848;2022-10-16T02:43:59;98877.81;;;13.02;76.88
62436;BME280;48480;50.252;18.848;2022-10-16T02:46:44;98881.33;;;13.00;76.93
62436;BME280;48480;50.252;18.848;2022-10-16T02:49:27;98878.98;;;12.97;76.95
62436;BME280;48480;50.252;18.848;2022-10-16T02:52:11;98887.89;;;12.95;76.93
62436;BME280;48480;50.252;18.848;2022-10-16T02:54:55;98885.05;;;12.92;77.06
62436;BME280;48480;50.252;18.848;2022-10-16T02:57:39;98885.88;;;12.91;77.07
62436;BME280;48480;50.252;18.848;2022-10-16T03:00:24;98888.56;;;12.89;77.27
62436;BME280;48480;50.252;18.848;2022-10-16T03:03:07;98884.84;;;12.87;77.36
62436;BME280;48480;50.252;18.848;2022-10-16T03:05:51;98885.70;;;12.87;77.30
62436;BME280;48480;50.252;18.848;2022-10-16T03:08:35;98887.84;;;12.87;77.33
62436;BME280;48480;50.252;18.848;2022-10-16T03:11:19;98893.07;;;12.90;77.32
62436;BME280;48480;50.252;18.848;2022-10-16T03:14:03;98896.14;;;12.94;77.26
62436;BME280;48480;50.252;18.848;2022-10-16T03:16:47;98905.84;;;12.96;77.20
62436;BME280;48480;50.252;18.848;2022-10-16T03:19:31;98908.98;;;12.99;77.12
62436;BME280;48480;50.252;18.848;2022-10-16T03:22:15;98906.86;;;13.01;77.06
62436;BME280;48480;50.252;18.848;2022-10-16T03:25:01;98906.06;;;13.06;76.91
62436;BME280;48480;50.252;18.848;2022-10-16T03:27:45;98905.84;;;13.10;76.85
62436;BME280;48480;50.252;18.848;2022-10-16T03:30:29;98914.09;;;13.14;76.65
62436;BME280;48480;50.252;18.848;2022-10-16T03:33:13;98915.79;;;13.16;76.55
62436;BME280;48480;50.252;18.848;2022-10-16T03:35:57;98914.08;;;13.18;76.44
62436;BME280;48480;50.252;18.848;2022-10-16T03:38:41;98910.89;;;13.15;76.36
62436;BME280;48480;50.252;18.848;2022-10-16T03:41:25;98923.90;;;13.20;76.29
62436;BME280;48480;50.252;18.848;2022-10-16T03:44:09;98925.60;;;13.22;76.27
62436;BME280;48480;50.252;18.848;2022-10-16T03:46:53;98917.14;;;13.19;76.13
62436;BME280;48480;50.252;18.848;2022-10-16T03:49:37;98920.90;;;13.24;75.94
62436;BME280;48480;50.252;18.848;2022-10-16T03:52:21;98919.95;;;13.26;75.90
62436;BME280;48480;50.252;18.848;2022-10-16T03:55:05;98920.46;;;13.25;75.92
62436;BME280;48480;50.252;18.848;2022-10-16T03:57:49;98925.34;;;13.26;75.90
62436;BME280;48480;50.252;18.848;2022-10-16T04:00:33;98920.80;;;13.26;75.90
62436;BME280;48480;50.252;18.848;2022-10-16T04:03:18;98920.27;;;13.26;75.92
62436;BME280;48480;50.252;18.848;2022-10-16T04:05:44;98925.52;;;13.26;75.96
62436;BME280;48480;50.252;18.848;2022-10-16T04:08:09;98924.76;;;13.29;75.88
62436;BME280;48480;50.252;18.848;2022-10-16T04:10:35;98927.42;;;13.30;75.78
62436;BME280;48480;50.252;18.848;2022-10-16T04:13:00;98928.99;;;13.30;75.85
62436;BME280;48480;50.252;18.848;2022-10-16T04:15:26;98934.99;;;13.30;75.81
62436;BME280;48480;50.252;18.848;2022-10-16T04:17:51;98942.42;;;13.31;75.83
62436;BME280;48480;50.252;18.848;2022-10-16T04:20:17;98939.94;;;13.32;75.91
62436;BME280;48480;50.252;18.848;2022-10-16T04:22:43;98932.16;;;13.32;75.86
62436;BME280;48480;50.252;18.848;2022-10-16T04:25:09;98925.52;;;13.31;75.86
62436;BME280;48480;50.252;18.848;2022-10-16T04:27:34;98918.54;;;13.30;75.82
62436;BME280;48480;50.252;18.848;2022-10-16T04:30:00;98922.12;;;13.31;75.76
62436;BME280;48480;50.252;18.848;2022-10-16T04:32:26;98920.39;;;13.31;75.70
62436;BME280;48480;50.252;18.848;2022-10-16T04:34:52;98923.13;;;13.31;75.69
62436;BME280;48480;50.252;18.848;2022-10-16T04:37:18;98929.39;;;13.31;75.71
62436;BME280;48480;50.252;18.848;2022-10-16T04:39:43;98925.34;;;13.29;75.78
62436;BME280;48480;50.252;18.848;2022-10-16T04:42:10;98927.71;;;13.27;75.72
62436;BME280;48480;50.252;18.848;2022-10-16T04:44:36;98929.45;;;13.25;75.72
62436;BME280;48480;50.252;18.848;2022-10-16T04:47:01;98937.45;;;13.22;75.75
62436;BME280;48480;50.252;18.848;2022-10-16T04:49:26;98935.73;;;13.19;75.81
62436;BME280;48480;50.252;18.848;2022-10-16T04:51:52;98938.17;;;13.14;75.85
62436;BME280;48480;50.252;18.848;2022-10-16T04:54:17;98945.77;;;13.12;75.99
62436;BME280;48480;50.252;18.848;2022-10-16T04:56:43;98947.27;;;13.09;76.08
62436;BME280;48480;50.252;18.848;2022-10-16T04:59:16;98942.40;;;13.07;76.16
62436;BME280;48480;50.252;18.848;2022-10-16T05:01:41;98928.27;;;12.98;76.27
62436;BME280;48480;50.252;18.848;2022-10-16T05:04:08;98942.69;;;13.01;76.31
62436;BME280;48480;50.252;18.848;2022-10-16T05:06:33;98941.96;;;13.00;76.29
62436;BME280;48480;50.252;18.848;2022-10-16T05:08:59;98946.59;;;12.99;76.32
62436;BME280;48480;50.252;18.848;2022-10-16T05:11:24;98955.45;;;12.97;76.42
62436;BME280;48480;50.252;18.848;2022-10-16T05:13:50;98960.82;;;12.97;76.49
62436;BME280;48480;50.252;18.848;2022-10-16T05:16:15;98973.02;;;12.96;76.50
62436;BME280;48480;50.252;18.848;2022-10-16T05:18:41;98974.28;;;12.95;76.61
62436;BME280;48480;50.252;18.848;2022-10-16T05:21:06;98977.16;;;12.96;76.60
62436;BME280;48480;50.252;18.848;2022-10-16T05:23:32;98975.16;;;12.96;76.58
62436;BME280;48480;50.252;18.848;2022-10-16T05:25:58;98970.39;;;12.92;76.56
62436;BME280;48480;50.252;18.848;2022-10-16T05:28:26;98978.88;;;12.96;76.62
62436;BME280;48480;50.252;18.848;2022-10-16T05:30:52;98977.48;;;12.96;76.60
62436;BME280;48480;50.252;18.848;2022-10-16T05:33:22;98979.00;;;12.96;76.56
62436;BME280;48480;50.252;18.848;2022-10-16T05:35:48;98980.27;;;12.95;76.56
62436;BME280;48480;50.252;18.848;2022-10-16T05:38:15;98982.34;;;12.94;76.57
62436;BME280;48480;50.252;18.848;2022-10-16T05:40:41;98987.23;;;12.94;76.57
62436;BME280;48480;50.252;18.848;2022-10-16T05:43:07;98985.97;;;12.95;76.60
62436;BME280;48480;50.252;18.848;2022-10-16T05:45:32;98990.44;;;12.95;76.67
62436;BME280;48480;50.252;18.848;2022-10-16T05:47:59;98991.03;;;12.96;76.73
62436;BME280;48480;50.252;18.848;2022-10-16T05:50:24;98981.07;;;12.93;76.71
62436;BME280;48480;50.252;18.848;2022-10-16T05:52:50;98994.11;;;13.00;76.84
62436;BME280;48480;50.252;18.848;2022-10-16T05:55:15;98997.48;;;13.01;76.87
62436;BME280;48480;50.252;18.848;2022-10-16T05:57:40;99002.70;;;13.02;76.99
62436;BME280;48480;50.252;18.848;2022-10-16T06:00:06;99005.33;;;13.03;77.09
62436;BME280;48480;50.252;18.848;2022-10-16T06:02:32;99004.27;;;13.03;77.12
62436;BME280;48480;50.252;18.848;2022-10-16T06:04:57;99007.77;;;13.06;77.26
62436;BME280;48480;50.252;18.848;2022-10-16T06:07:23;99014.23;;;13.09;77.26
62436;BME280;48480;50.252;18.848;2022-10-16T06:09:49;99024.33;;;13.13;77.31
62436;BME280;48480;50.252;18.848;2022-10-16T06:12:15;99024.39;;;13.16;77.32
62436;BME280;48480;50.252;18.848;2022-10-16T06:14:41;99023.76;;;13.18;77.30
62436;BME280;48480;50.252;18.848;2022-10-16T06:17:06;99026.61;;;13.20;77.36
62436;BME280;48480;50.252;18.848;2022-10-16T06:19:31;99029.20;;;13.21;77.43
62436;BME280;48480;50.252;18.848;2022-10-16T06:21:57;99029.51;;;13.27;77.50
62436;BME280;48480;50.252;18.848;2022-10-16T06:24:24;99037.74;;;13.31;77.55
62436;BME280;48480;50.252;18.848;2022-10-16T06:26:49;99042.94;;;13.35;77.65
62436;BME280;48480;50.252;18.848;2022-10-16T06:29:15;99048.52;;;13.43;77.72
62436;BME280;48480;50.252;18.848;2022-10-16T06:31:40;99053.95;;;13.52;77.64
62436;BME280;48480;50.252;18.848;2022-10-16T06:34:09;99053.73;;;13.61;77.57
62436;BME280;48480;50.252;18.848;2022-10-16T06:36:35;99048.95;;;13.72;77.43
62436;BME280;48480;50.252;18.848;2022-10-16T06:39:01;99051.63;;;13.83;77.18
62436;BME280;48480;50.252;18.848;2022-10-16T06:41:27;99056.20;;;13.93;77.02
62436;BME280;48480;50.252;18.848;2022-10-16T06:43:52;99058.70;;;14.06;76.66
62436;BME280;48480;50.252;18.848;2022-10-16T06:46:21;99057.55;;;14.21;75.68
62436;BME280;48480;50.252;18.848;2022-10-16T06:48:47;99059.63;;;14.36;74.93
62436;BME280;48480;50.252;18.848;2022-10-16T06:51:15;99061.00;;;14.50;74.01
62436;BME280;48480;50.252;18.848;2022-10-16T06:53:43;99064.06;;;14.62;73.46
62436;BME280;48480;50.252;18.848;2022-10-16T06:56:10;99063.92;;;14.73;72.97
62436;BME280;48480;50.252;18.848;2022-10-16T06:58:37;99067.18;;;14.84;72.46
62436;BME280;48480;50.252;18.848;2022-10-16T07:01:03;99066.70;;;14.92;71.94
62436;BME280;48480;50.252;18.848;2022-10-16T07:03:28;99065.44;;;15.01;71.84
62436;BME280;48480;50.252;18.848;2022-10-16T07:05:54;99069.91;;;15.18;71.15
62436;BME280;48480;50.252;18.848;2022-10-16T07:08:19;99069.23;;;15.45;70.60
62436;BME280;48480;50.252;18.848;2022-10-16T07:10:45;99068.24;;;15.79;70.02
62436;BME280;48480;50.252;18.848;2022-10-16T07:13:10;99070.05;;;16.17;69.00
62436;BME280;48480;50.252;18.848;2022-10-16T07:15:39;99064.88;;;16.54;68.37
62436;BME280;48480;50.252;18.848;2022-10-16T07:18:04;99070.17;;;16.87;67.49
62436;BME280;48480;50.252;18.848;2022-10-16T07:20:29;99073.05;;;17.15;66.56
62436;BME280;48480;50.252;18.848;2022-10-16T07:22:55;99072.42;;;17.31;65.91
62436;BME280;48480;50.252;18.848;2022-10-16T07:25:20;99078.39;;;17.43;65.56
62436;BME280;48480;50.252;18.848;2022-10-16T07:27:46;99083.22;;;17.55;65.10
62436;BME280;48480;50.252;18.848;2022-10-16T07:30:11;99080.48;;;17.66;64.51
62436;BME280;48480;50.252;18.848;2022-10-16T07:32:37;99085.09;;;17.74;64.18
62436;BME280;48480;50.252;18.848;2022-10-16T07:35:03;99084.11;;;17.80;63.84
62436;BME280;48480;50.252;18.848;2022-10-16T07:37:29;99086.05;;;17.85;63.49
62436;BME280;48480;50.252;18.848;2022-10-16T07:39:54;99081.52;;;17.89;63.07
62436;BME280;48480;50.252;18.848;2022-10-16T07:42:20;99082.38;;;17.93;62.64
62436;BME280;48480;50.252;18.848;2022-10-16T07:44:45;99083.92;;;17.93;62.27
62436;BME280;48480;50.252;18.848;2022-10-16T07:47:13;99082.88;;;17.91;62.27
62436;BME280;48480;50.252;18.848;2022-10-16T07:49:38;99083.38;;;17.87;61.95
62436;BME280;48480;50.252;18.848;2022-10-16T07:52:04;99083.60;;;17.84;62.06
62436;BME280;48480;50.252;18.848;2022-10-16T07:54:30;99088.34;;;17.90;62.18
62436;BME280;48480;50.252;18.848;2022-10-16T07:56:55;99093.11;;;17.98;62.00
62436;BME280;48480;50.252;18.848;2022-10-16T07:59:21;99099.09;;;18.04;61.87
62436;BME280;48480;50.252;18.848;2022-10-16T08:01:46;99102.32;;;18.09;61.76
62436;BME280;48480;50.252;18.848;2022-10-16T08:04:11;99099.11;;;18.12;61.66
62436;BME280;48480;50.252;18.848;2022-10-16T08:06:39;99103.23;;;18.11;61.31
62436;BME280;48480;50.252;18.848;2022-10-16T08:09:06;99100.31;;;18.10;61.30
62436;BME280;48480;50.252;18.848;2022-10-16T08:11:32;99099.11;;;18.12;61.14
62436;BME280;48480;50.252;18.848;2022-10-16T08:13:58;99097.88;;;18.11;60.81
62436;BME280;48480;50.252;18.848;2022-10-16T08:16:24;99092.86;;;18.09;60.71
62436;BME280;48480;50.252;18.848;2022-10-16T08:18:49;99092.52;;;18.11;60.63
62436;BME280;48480;50.252;18.848;2022-10-16T08:21:18;99092.04;;;18.14;60.04
62436;BME280;48480;50.252;18.848;2022-10-16T08:23:43;99093.69;;;18.18;59.64
62436;BME280;48480;50.252;18.848;2022-10-16T08:26:10;99094.94;;;18.24;59.31
62436;BME280;48480;50.252;18.848;2022-10-16T08:28:36;99102.28;;;18.43;58.98
62436;BME280;48480;50.252;18.848;2022-10-16T08:31:10;99104.91;;;18.56;58.58
62436;BME280;48480;50.252;18.848;2022-10-16T08:33:38;99109.58;;;18.63;58.29
62436;BME280;48480;50.252;18.848;2022-10-16T08:36:05;99115.31;;;18.65;57.94
62436;BME280;48480;50.252;18.848;2022-10-16T08:38:30;99112.23;;;18.66;57.88
62436;BME280;48480;50.252;18.848;2022-10-16T08:44:02;99114.92;;;18.73;57.65
62436;BME280;48480;50.252;18.848;2022-10-16T08:49:11;99117.38;;;19.05;56.55
62436;BME280;48480;50.252;18.848;2022-10-16T08:51:39;99117.98;;;19.08;56.69
62436;BME280;48480;50.252;18.848;2022-10-16T08:54:10;99122.62;;;19.03;56.65
62436;BME280;48480;50.252;18.848;2022-10-16T08:56:40;99114.21;;;18.95;56.71
62436;BME280;48480;50.252;18.848;2022-10-16T08:59:09;99107.64;;;18.86;56.89
62436;BME280;48480;50.252;18.848;2022-10-16T09:01:41;99112.38;;;18.79;56.99
62436;BME280;48480;50.252;18.848;2022-10-16T09:09:54;99119.66;;;18.69;57.93
62436;BME280;48480;50.252;18.848;2022-10-16T09:12:33;99120.42;;;18.76;57.52
62436;BME280;48480;50.252;18.848;2022-10-16T09:20:39;99120.14;;;19.49;56.35
62436;BME280;48480;50.252;18.848;2022-10-16T09:23:15;99126.32;;;19.91;56.01
62436;BME280;48480;50.252;18.848;2022-10-16T09:25:45;99128.95;;;20.35;55.06
62436;BME280;48480;50.252;18.848;2022-10-16T09:28:13;99132.55;;;20.65;54.37
62436;BME280;48480;50.252;18.848;2022-10-16T09:30:38;99130.78;;;20.81;53.94
62436;BME280;48480;50.252;18.848;2022-10-16T09:33:05;99146.59;;;21.04;53.23
62436;BME280;48480;50.252;18.848;2022-10-16T09:35:36;99141.34;;;21.08;52.96
62436;BME280;48480;50.252;18.848;2022-10-16T09:38:02;99145.77;;;21.07;52.23
62436;BME280;48480;50.252;18.848;2022-10-16T09:40:30;99144.79;;;20.92;51.90
62436;BME280;48480;50.252;18.848;2022-10-16T09:43:24;99141.54;;;20.77;51.95
62436;BME280;48480;50.252;18.848;2022-10-16T09:46:00;99145.02;;;20.61;52.38
62436;BME280;48480;50.252;18.848;2022-10-16T09:48:37;99137.14;;;20.51;52.36
62436;BME280;48480;50.252;18.848;2022-10-16T09:51:06;99145.56;;;20.57;52.30
62436;BME280;48480;50.252;18.848;2022-10-16T09:53:38;99144.46;;;20.56;52.68
62436;BME280;48480;50.252;18.848;2022-10-16T09:56:04;99141.35;;;20.52;52.71
62436;BME280;48480;50.252;18.848;2022-10-16T09:58:32;99141.71;;;20.49;52.94
62436;BME280;48480;50.252;18.848;2022-10-16T10:00:58;99141.16;;;20.45;53.25
62436;BME280;48480;50.252;18.848;2022-10-16T10:03:34;99141.59;;;20.42;53.35
62436;BME280;48480;50.252;18.848;2022-10-16T10:06:14;99138.08;;;20.36;53.63
62436;BME280;48480;50.252;18.848;2022-10-16T10:08:51;99145.25;;;20.42;53.65
62436;BME280;48480;50.252;18.848;2022-10-16T10:11:17;99135.63;;;20.40;53.67
62436;BME280;48480;50.252;18.848;2022-10-16T10:13:43;99141.61;;;20.43;52.96
62436;BME280;48480;50.252;18.848;2022-10-16T10:16:08;99145.25;;;20.38;53.22
62436;BME280;48480;50.252;18.848;2022-10-16T10:18:34;99150.13;;;20.36;53.48
62436;BME280;48480;50.252;18.848;2022-10-16T10:21:00;99154.73;;;20.37;53.69
62436;BME280;48480;50.252;18.848;2022-10-16T10:23:27;99150.03;;;20.39;53.72
62436;BME280;48480;50.252;18.848;2022-10-16T10:26:11;99153.63;;;20.40;53.39
62436;BME280;48480;50.252;18.848;2022-10-16T10:31:52;99157.92;;;20.32;53.86
62436;BME280;48480;50.252;18.848;2022-10-16T10:39:38;99159.11;;;20.15;54.06
62436;BME280;48480;50.252;18.848;2022-10-16T10:42:22;99157.52;;;20.04;54.40
62436;BME280;48480;50.252;18.848;2022-10-16T10:45:18;99147.49;;;19.92;54.52
62436;BME280;48480;50.252;18.848;2022-10-16T10:53:38;99140.83;;;19.62;55.48
62436;BME280;48480;50.252;18.848;2022-10-16T10:59:08;99142.17;;;19.55;56.21
62436;BME280;48480;50.252;18.848;2022-10-16T11:04:54;99134.77;;;19.54;56.47
62436;BME280;48480;50.252;18.848;2022-10-16T11:07:30;99139.27;;;19.61;56.47
62436;BME280;48480;50.252;18.848;2022-10-16T11:10:03;99140.95;;;19.64;56.67
62436;BME280;48480;50.252;18.848;2022-10-16T11:12:38;99139.65;;;19.65;56.65
62436;BME280;48480;50.252;18.848;2022-10-16T11:15:21;99130.45;;;19.63;56.90
62436;BME280;48480;50.252;18.848;2022-10-16T11:21:04;99150.67;;;19.78;56.62
62436;BME280;48480;50.252;18.848;2022-10-16T11:23:38;99149.61;;;19.80;56.36
62436;BME280;48480;50.252;18.848;2022-10-16T11:26:14;99148.91;;;19.80;56.43
62436;BME280;48480;50.252;18.848;2022-10-16T11:28:45;99143.91;;;19.79;56.45
62436;BME280;48480;50.252;18.848;2022-10-16T11:31:22;99147.19;;;19.80;56.71
62436;BME280;48480;50.252;18.848;2022-10-16T11:34:13;99151.89;;;19.85;56.51
62436;BME280;48480;50.252;18.848;2022-10-16T11:39:24;99151.65;;;19.86;56.75
62436;BME280;48480;50.252;18.848;2022-10-16T11:42:09;99153.71;;;19.88;56.43
62436;BME280;48480;50.252;18.848;2022-10-16T11:49:55;99154.27;;;20.09;56.09
62436;BME280;48480;50.252;18.848;2022-10-16T11:52:36;99156.27;;;20.08;55.89
62436;BME280;48480;50.252;18.848;2022-10-16T11:57:58;99153.41;;;20.04;55.89
62436;BME280;48480;50.252;18.848;2022-10-16T12:00:31;99155.84;;;20.02;55.99
62436;BME280;48480;50.252;18.848;2022-10-16T12:03:10;99161.89;;;20.01;56.16
62436;BME280;48480;50.252;18.848;2022-10-16T12:08:26;99170.46;;;20.19;56.34
62436;BME280;48480;50.252;18.848;2022-10-16T12:10:52;99180.16;;;20.27;56.20
62436;BME280;48480;50.252;18.848;2022-10-16T12:18:44;99176.61;;;20.47;55.88
62436;BME280;48480;50.252;18.848;2022-10-16T12:21:12;99180.30;;;20.57;55.52
62436;BME280;48480;50.252;18.848;2022-10-16T12:23:49;99179.25;;;20.68;55.18
62436;BME280;48480;50.252;18.848;2022-10-16T12:26:24;99180.52;;;20.70;54.96
62436;BME280;48480;50.252;18.848;2022-10-16T12:28:50;99182.54;;;20.69;55.22
62436;BME280;48480;50.252;18.848;2022-10-16T12:31:17;99182.41;;;20.66;55.16
62436;BME280;48480;50.252;18.848;2022-10-16T12:34:00;99179.96;;;20.64;55.13
62436;BME280;48480;50.252;18.848;2022-10-16T12:36:32;99178.20;;;20.58;55.01
62436;BME280;48480;50.252;18.848;2022-10-16T12:38:58;99175.60;;;20.51;55.11
62436;BME280;48480;50.252;18.848;2022-10-16T12:41:34;99174.74;;;20.47;55.41
62436;BME280;48480;50.252;18.848;2022-10-16T12:44:01;99177.25;;;20.43;55.52
62436;BME280;48480;50.252;18.848;2022-10-16T12:51:54;99175.02;;;20.17;56.31
62436;BME280;48480;50.252;18.848;2022-10-16T12:54:25;99177.79;;;20.11;56.43
62436;BME280;48480;50.252;18.848;2022-10-16T13:13:43;99185.84;;;19.80;57.22
62436;BME280;48480;50.252;18.848;2022-10-16T13:16:35;99188.13;;;19.74;56.51
62436;BME280;48480;50.252;18.848;2022-10-16T13:22:13;99188.45;;;19.74;56.40
62436;BME280;48480;50.252;18.848;2022-10-16T13:24:47;99186.86;;;19.72;56.06
62436;BME280;48480;50.252;18.848;2022-10-16T13:27:27;99189.37;;;19.71;55.96
62436;BME280;48480;50.252;18.848;2022-10-16T13:32:48;99195.24;;;19.65;55.70
62436;BME280;48480;50.252;18.848;2022-10-16T13:35:32;99195.63;;;19.61;55.61
62436;BME280;48480;50.252;18.848;2022-10-16T13:38:15;99186.84;;;19.57;55.63
62436;BME280;48480;50.252;18.848;2022-10-16T13:41:15;99180.36;;;19.64;55.78
62436;BME280;48480;50.252;18.848;2022-10-16T13:43:51;99171.45;;;19.68;55.87
62436;BME280;48480;50.252;18.848;2022-10-16T13:46:22;99178.94;;;19.73;55.50
62436;BME280;48480;50.252;18.848;2022-10-16T13:51:28;99172.20;;;19.56;55.72
62436;BME280;48480;50.252;18.848;2022-10-16T13:53:55;99144.39;;;19.30;55.94
62436;BME280;48480;50.252;18.848;2022-10-16T13:56:25;99170.16;;;19.39;56.24
62436;BME280;48480;50.252;18.848;2022-10-16T13:58:59;99172.23;;;19.31;56.43
62436;BME280;48480;50.252;18.848;2022-10-16T14:01:41;99181.23;;;19.23;56.48
62436;BME280;48480;50.252;18.848;2022-10-16T14:04:11;99168.56;;;19.16;56.56
62436;BME280;48480;50.252;18.848;2022-10-16T14:06:41;99183.38;;;19.25;56.76
62436;BME280;48480;50.252;18.848;2022-10-16T14:09:23;99183.82;;;19.28;56.80
62436;BME280;48480;50.252;18.848;2022-10-16T14:11:52;99171.58;;;19.19;56.77
62436;BME280;48480;50.252;18.848;2022-10-16T14:14:22;99204.89;;;19.39;56.74
62436;BME280;48480;50.252;18.848;2022-10-16T14:16:50;99210.29;;;19.44;56.70
62436;BME280;48480;50.252;18.848;2022-10-16T14:19:28;99187.48;;;19.31;56.64
62436;BME280;48480;50.252;18.848;2022-10-16T14:21:55;99202.77;;;19.50;56.37
62436;BME280;48480;50.252;18.848;2022-10-16T14:24:34;99204.63;;;19.53;56.23
62436;BME280;48480;50.252;18.848;2022-10-16T14:27:01;99184.71;;;19.44;56.14
62436;BME280;48480;50.252;18.848;2022-10-16T14:29:32;99205.80;;;19.60;55.83
62436;BME280;48480;50.252;18.848;2022-10-16T14:32:03;99191.59;;;19.53;55.85
62436;BME280;48480;50.252;18.848;2022-10-16T14:34:37;99210.45;;;19.68;55.72
62436;BME280;48480;50.252;18.848;2022-10-16T14:37:14;99217.30;;;19.68;55.53
62436;BME280;48480;50.252;18.848;2022-10-16T14:39:49;99213.54;;;19.66;55.57
62436;BME280;48480;50.252;18.848;2022-10-16T14:42:16;99178.65;;;19.45;55.55
62436;BME280;48480;50.252;18.848;2022-10-16T14:44:50;99178.36;;;19.42;55.42
62436;BME280;48480;50.252;18.848;2022-10-16T14:47:22;99208.64;;;19.59;55.71
62436;BME280;48480;50.252;18.848;2022-10-16T14:49:52;99188.70;;;19.38;55.87
62436;BME280;48480;50.252;18.848;2022-10-16T14:52:22;99222.06;;;19.54;56.02
62436;BME280;48480;50.252;18.848;2022-10-16T14:54:51;99226.61;;;19.52;56.06
62436;BME280;48480;50.252;18.848;2022-10-16T14:57:23;99209.73;;;19.34;55.96
62436;BME280;48480;50.252;18.848;2022-10-16T14:59:52;99204.24;;;19.27;56.08
62436;BME280;48480;50.252;18.848;2022-10-16T15:04:50;99201.81;;;19.26;56.25
62436;BME280;48480;50.252;18.848;2022-10-16T15:07:18;99204.33;;;19.31;56.29
62436;BME280;48480;50.252;18.848;2022-10-16T15:09:43;99220.20;;;19.39;56.27
62436;BME280;48480;50.252;18.848;2022-10-16T15:12:09;99213.08;;;19.30;56.42
62436;BME280;48480;50.252;18.848;2022-10-16T15:14:35;99200.42;;;19.16;56.65